TTW7262 RCKH-VHHH
Flight info
| Callsign | TTW7262 |
|---|---|
| Flight time | 1h 5m |
| Altitude | 34000 |
| Route | PARAS1B PARAS T7 WP521 G581 ELATO V522 ABBEY |
| Aircraft | A320/M-SDE1E2FGHIRWY/LB1 |
Departure
| Time | 2026-05-08 03:28 |
|---|---|
| Airport | Kaohsiung International Airport (RCKH) |
Arrival
| Time | 2026-05-08 04:33 |
|---|---|
| Airport | Hong Kong International Airport (VHHH) |
| Time | Latitude | Longitude | Altitude | Speed | Heading |
|---|---|---|---|---|---|
| 2026-05-08 03:10 | 22.57326 | 120.33966 | 38 ft | 0 kts | 271° |
| 2026-05-08 03:17 | 22.57326 | 120.33969 | 38 ft | 3 kts | 271° |
| 2026-05-08 03:17 | 22.57325 | 120.33997 | 38 ft | 4 kts | 270° |
| 2026-05-08 03:17 | 22.57326 | 120.34026 | 38 ft | 4 kts | 259° |
| 2026-05-08 03:18 | 22.57335 | 120.34049 | 35 ft | 4 kts | 204° |
| 2026-05-08 03:18 | 22.57356 | 120.34053 | 36 ft | 3 kts | 181° |
| 2026-05-08 03:18 | 22.57381 | 120.34049 | 36 ft | 4 kts | 151° |
| 2026-05-08 03:18 | 22.57400 | 120.34031 | 35 ft | 4 kts | 119° |
| 2026-05-08 03:19 | 22.57410 | 120.34004 | 38 ft | 4 kts | 99° |
| 2026-05-08 03:19 | 22.57411 | 120.33990 | 38 ft | 0 kts | 92° |
| 2026-05-08 03:21 | 22.57411 | 120.33996 | 38 ft | 2 kts | 92° |
| 2026-05-08 03:21 | 22.57410 | 120.34027 | 37 ft | 5 kts | 92° |
| 2026-05-08 03:22 | 22.57409 | 120.34073 | 36 ft | 7 kts | 92° |
| 2026-05-08 03:22 | 22.57435 | 120.34119 | 38 ft | 8 kts | 23° |
| 2026-05-08 03:22 | 22.57499 | 120.34121 | 38 ft | 9 kts | 0° |
| 2026-05-08 03:22 | 22.57560 | 120.34146 | 38 ft | 11 kts | 59° |
| 2026-05-08 03:23 | 22.57564 | 120.34231 | 39 ft | 12 kts | 92° |
| 2026-05-08 03:23 | 22.57560 | 120.34330 | 39 ft | 14 kts | 92° |
| 2026-05-08 03:23 | 22.57557 | 120.34443 | 39 ft | 16 kts | 92° |
| 2026-05-08 03:23 | 22.57553 | 120.34569 | 39 ft | 18 kts | 91° |
| 2026-05-08 03:24 | 22.57548 | 120.34708 | 38 ft | 19 kts | 92° |
| 2026-05-08 03:24 | 22.57544 | 120.34862 | 38 ft | 21 kts | 91° |
| 2026-05-08 03:24 | 22.57539 | 120.35031 | 38 ft | 23 kts | 92° |
| 2026-05-08 03:24 | 22.57534 | 120.35214 | 38 ft | 25 kts | 91° |
| 2026-05-08 03:25 | 22.57528 | 120.35403 | 38 ft | 24 kts | 91° |
| 2026-05-08 03:25 | 22.57522 | 120.35572 | 38 ft | 21 kts | 92° |
| 2026-05-08 03:25 | 22.57517 | 120.35717 | 38 ft | 18 kts | 92° |
| 2026-05-08 03:25 | 22.57515 | 120.35838 | 38 ft | 14 kts | 91° |
| 2026-05-08 03:26 | 22.57526 | 120.35900 | 37 ft | 8 kts | 51° |
| 2026-05-08 03:26 | 22.57579 | 120.35915 | 39 ft | 9 kts | 359° |
| 2026-05-08 03:26 | 22.57645 | 120.35913 | 39 ft | 10 kts | 349° |
| 2026-05-08 03:26 | 22.57682 | 120.35851 | 39 ft | 12 kts | 271° |
| 2026-05-08 03:27 | 22.57685 | 120.35729 | 39 ft | 31 kts | 272° |
| 2026-05-08 03:27 | 22.57701 | 120.35233 | 38 ft | 97 kts | 272° |
| 2026-05-08 03:27 | 22.57729 | 120.34318 | 41 ft | 144 kts | 272° |
| 2026-05-08 03:27 | 22.57775 | 120.33176 | 482 ft | 150 kts | 271° |
| 2026-05-08 03:28 | 22.57792 | 120.32044 | 1060 ft | 152 kts | 274° |
| 2026-05-08 03:28 | 22.57817 | 120.30893 | 1649 ft | 154 kts | 273° |
| 2026-05-08 03:28 | 22.57852 | 120.29696 | 2011 ft | 166 kts | 273° |
| 2026-05-08 03:28 | 22.57890 | 120.28356 | 2224 ft | 189 kts | 272° |
| 2026-05-08 03:29 | 22.57932 | 120.26851 | 2420 ft | 212 kts | 273° |
| 2026-05-08 03:29 | 22.57898 | 120.25168 | 2697 ft | 238 kts | 258° |
| 2026-05-08 03:29 | 22.57087 | 120.23535 | 3061 ft | 262 kts | 228° |
| 2026-05-08 03:29 | 22.55804 | 120.22074 | 3734 ft | 271 kts | 226° |
| 2026-05-08 03:30 | 22.53133 | 120.19097 | 5407 ft | 279 kts | 225° |
| 2026-05-08 03:30 | 22.50436 | 120.16062 | 7070 ft | 282 kts | 227° |
| 2026-05-08 03:31 | 22.47727 | 120.12991 | 8652 ft | 285 kts | 227° |
| 2026-05-08 03:31 | 22.44974 | 120.09862 | 10158 ft | 289 kts | 227° |
| 2026-05-08 03:32 | 22.43545 | 120.08236 | 10438 ft | 309 kts | 227° |
| 2026-05-08 03:32 | 22.42046 | 120.06469 | 10560 ft | 331 kts | 232° |
| 2026-05-08 03:32 | 22.40652 | 120.04383 | 10695 ft | 350 kts | 236° |
| 2026-05-08 03:32 | 22.39229 | 120.02192 | 11051 ft | 360 kts | 236° |
| 2026-05-08 03:33 | 22.37778 | 119.99966 | 11597 ft | 364 kts | 236° |
| 2026-05-08 03:33 | 22.36312 | 119.97724 | 12179 ft | 366 kts | 236° |
| 2026-05-08 03:33 | 22.34834 | 119.95468 | 12767 ft | 369 kts | 236° |
| 2026-05-08 03:33 | 22.33347 | 119.93198 | 13347 ft | 372 kts | 236° |
| 2026-05-08 03:34 | 22.31851 | 119.90913 | 13898 ft | 374 kts | 236° |
| 2026-05-08 03:34 | 22.30342 | 119.88612 | 14396 ft | 376 kts | 236° |
| 2026-05-08 03:34 | 22.28843 | 119.86330 | 14886 ft | 379 kts | 236° |
| 2026-05-08 03:34 | 22.27297 | 119.83973 | 15386 ft | 381 kts | 236° |
| 2026-05-08 03:35 | 22.25781 | 119.81658 | 15878 ft | 384 kts | 236° |
| 2026-05-08 03:35 | 22.24236 | 119.79301 | 16361 ft | 386 kts | 236° |
| 2026-05-08 03:35 | 22.22677 | 119.76924 | 16847 ft | 389 kts | 236° |
| 2026-05-08 03:35 | 22.21295 | 119.74445 | 17301 ft | 390 kts | 246° |
| 2026-05-08 03:36 | 22.20350 | 119.71701 | 17788 ft | 391 kts | 256° |
| 2026-05-08 03:36 | 22.19720 | 119.68797 | 18267 ft | 393 kts | 257° |
| 2026-05-08 03:36 | 22.19112 | 119.65953 | 18665 ft | 396 kts | 258° |
| 2026-05-08 03:36 | 22.18487 | 119.63049 | 19059 ft | 399 kts | 258° |
| 2026-05-08 03:37 | 22.17844 | 119.60084 | 19445 ft | 402 kts | 258° |
| 2026-05-08 03:37 | 22.17203 | 119.57140 | 19826 ft | 405 kts | 258° |
| 2026-05-08 03:37 | 22.16556 | 119.54176 | 20189 ft | 407 kts | 258° |
| 2026-05-08 03:37 | 22.16110 | 119.51196 | 20536 ft | 409 kts | 267° |
| 2026-05-08 03:38 | 22.16013 | 119.48077 | 20902 ft | 412 kts | 269° |
| 2026-05-08 03:38 | 22.15939 | 119.45018 | 21256 ft | 415 kts | 269° |
| 2026-05-08 03:38 | 22.15862 | 119.41902 | 21606 ft | 417 kts | 269° |
| 2026-05-08 03:38 | 22.15780 | 119.38762 | 21954 ft | 420 kts | 269° |
| 2026-05-08 03:39 | 22.15695 | 119.35603 | 22297 ft | 422 kts | 270° |
| 2026-05-08 03:39 | 22.15607 | 119.32431 | 22626 ft | 425 kts | 270° |
| 2026-05-08 03:39 | 22.15506 | 119.28887 | 22975 ft | 428 kts | 270° |
| 2026-05-08 03:39 | 22.15417 | 119.25672 | 23277 ft | 430 kts | 270° |
| 2026-05-08 03:40 | 22.15328 | 119.22433 | 23559 ft | 433 kts | 270° |
| 2026-05-08 03:40 | 22.15236 | 119.19176 | 23807 ft | 435 kts | 270° |
| 2026-05-08 03:40 | 22.15144 | 119.15906 | 24067 ft | 437 kts | 270° |
| 2026-05-08 03:40 | 22.15052 | 119.12619 | 24333 ft | 439 kts | 270° |
| 2026-05-08 03:41 | 22.14991 | 119.09318 | 24594 ft | 441 kts | 273° |
| 2026-05-08 03:41 | 22.15284 | 119.06030 | 24853 ft | 441 kts | 278° |
| 2026-05-08 03:41 | 22.15681 | 119.02745 | 25115 ft | 443 kts | 278° |
| 2026-05-08 03:41 | 22.16085 | 118.99442 | 25377 ft | 445 kts | 278° |
| 2026-05-08 03:42 | 22.16491 | 118.96124 | 25628 ft | 447 kts | 278° |
| 2026-05-08 03:42 | 22.16894 | 118.92795 | 25870 ft | 449 kts | 278° |
| 2026-05-08 03:42 | 22.17295 | 118.89449 | 26115 ft | 451 kts | 278° |
| 2026-05-08 03:42 | 22.17697 | 118.86082 | 26361 ft | 453 kts | 278° |
| 2026-05-08 03:43 | 22.18101 | 118.82710 | 26606 ft | 455 kts | 278° |
| 2026-05-08 03:43 | 22.18505 | 118.79325 | 26906 ft | 455 kts | 278° |
| 2026-05-08 03:43 | 22.18905 | 118.75941 | 27275 ft | 454 kts | 278° |
| 2026-05-08 03:43 | 22.19304 | 118.72560 | 27640 ft | 453 kts | 278° |
| 2026-05-08 03:44 | 22.19703 | 118.69188 | 28008 ft | 453 kts | 278° |
| 2026-05-08 03:44 | 22.20100 | 118.65838 | 28383 ft | 452 kts | 278° |
| 2026-05-08 03:44 | 22.20497 | 118.62477 | 28753 ft | 452 kts | 278° |
| 2026-05-08 03:44 | 22.20758 | 118.60251 | 29005 ft | 452 kts | 278° |
| 2026-05-08 03:45 | 22.21284 | 118.55752 | 29546 ft | 451 kts | 278° |
| 2026-05-08 03:45 | 22.21545 | 118.53530 | 29814 ft | 451 kts | 278° |
| 2026-05-08 03:45 | 22.21940 | 118.50183 | 30199 ft | 450 kts | 278° |
| 2026-05-08 03:45 | 22.22331 | 118.46839 | 30585 ft | 448 kts | 278° |
| 2026-05-08 03:46 | 22.22718 | 118.43507 | 30992 ft | 446 kts | 278° |
| 2026-05-08 03:46 | 22.23101 | 118.40194 | 31426 ft | 443 kts | 278° |
| 2026-05-08 03:46 | 22.23480 | 118.36907 | 31877 ft | 440 kts | 278° |
| 2026-05-08 03:46 | 22.23856 | 118.33642 | 32363 ft | 436 kts | 278° |
| 2026-05-08 03:47 | 22.24232 | 118.30404 | 32867 ft | 433 kts | 278° |
| 2026-05-08 03:47 | 22.24603 | 118.27196 | 33359 ft | 429 kts | 278° |
| 2026-05-08 03:47 | 22.24968 | 118.24033 | 33818 ft | 427 kts | 278° |
| 2026-05-08 03:47 | 22.25334 | 118.20862 | 33963 ft | 425 kts | 278° |
| 2026-05-08 03:48 | 22.25701 | 118.17673 | 33997 ft | 432 kts | 278° |
| 2026-05-08 03:48 | 22.26446 | 118.11197 | 33997 ft | 436 kts | 278° |
| 2026-05-08 03:49 | 22.27166 | 118.04710 | 33994 ft | 437 kts | 278° |
| 2026-05-08 03:49 | 22.27872 | 117.98193 | 33993 ft | 437 kts | 278° |
| 2026-05-08 03:50 | 22.28609 | 117.91680 | 33997 ft | 437 kts | 278° |
| 2026-05-08 03:50 | 22.29358 | 117.85172 | 34000 ft | 437 kts | 278° |
| 2026-05-08 03:51 | 22.30102 | 117.78701 | 33998 ft | 437 kts | 278° |
| 2026-05-08 03:51 | 22.30847 | 117.72140 | 33996 ft | 437 kts | 278° |
| 2026-05-08 03:52 | 22.31579 | 117.65665 | 34001 ft | 437 kts | 278° |
| 2026-05-08 03:52 | 22.32311 | 117.59145 | 34000 ft | 437 kts | 278° |
| 2026-05-08 03:53 | 22.33045 | 117.52624 | 34002 ft | 437 kts | 278° |
| 2026-05-08 03:53 | 22.33269 | 117.46057 | 34007 ft | 439 kts | 270° |
| 2026-05-08 03:54 | 22.33147 | 117.39471 | 34006 ft | 439 kts | 271° |
| 2026-05-08 03:54 | 22.33036 | 117.32877 | 34006 ft | 439 kts | 271° |
| 2026-05-08 03:55 | 22.32917 | 117.26285 | 34005 ft | 439 kts | 271° |
| 2026-05-08 03:55 | 22.32785 | 117.19697 | 34008 ft | 439 kts | 271° |
| 2026-05-08 03:56 | 22.32653 | 117.13107 | 34013 ft | 438 kts | 271° |
| 2026-05-08 03:56 | 22.32525 | 117.06530 | 34013 ft | 438 kts | 271° |
| 2026-05-08 03:57 | 22.32398 | 116.99964 | 34013 ft | 437 kts | 271° |
| 2026-05-08 03:57 | 22.32270 | 116.93405 | 34010 ft | 437 kts | 271° |
| 2026-05-08 03:58 | 22.32132 | 116.86850 | 34008 ft | 437 kts | 271° |
| 2026-05-08 03:58 | 22.31993 | 116.80298 | 33999 ft | 436 kts | 271° |
| 2026-05-08 03:59 | 22.31851 | 116.73741 | 33989 ft | 437 kts | 271° |
| 2026-05-08 03:59 | 22.31710 | 116.67174 | 33985 ft | 438 kts | 271° |
| 2026-05-08 04:00 | 22.31567 | 116.60586 | 33990 ft | 439 kts | 271° |
| 2026-05-08 04:00 | 22.31418 | 116.53993 | 33993 ft | 439 kts | 270° |
| 2026-05-08 04:01 | 22.31262 | 116.47399 | 34002 ft | 439 kts | 270° |
| 2026-05-08 04:01 | 22.31105 | 116.40813 | 34006 ft | 439 kts | 270° |
| 2026-05-08 04:02 | 22.30946 | 116.34229 | 34009 ft | 439 kts | 270° |
| 2026-05-08 04:02 | 22.30781 | 116.27645 | 34009 ft | 439 kts | 270° |
| 2026-05-08 04:03 | 22.30620 | 116.21064 | 34006 ft | 438 kts | 270° |
| 2026-05-08 04:03 | 22.30377 | 116.11236 | 34004 ft | 438 kts | 270° |
| 2026-05-08 04:04 | 22.30202 | 116.04667 | 34005 ft | 438 kts | 270° |
| 2026-05-08 04:04 | 22.30028 | 115.98082 | 34005 ft | 438 kts | 270° |
| 2026-05-08 04:05 | 22.29853 | 115.91507 | 33999 ft | 438 kts | 270° |
| 2026-05-08 04:05 | 22.29676 | 115.84957 | 34002 ft | 438 kts | 270° |
| 2026-05-08 04:06 | 22.29495 | 115.78363 | 33676 ft | 437 kts | 270° |
| 2026-05-08 04:06 | 22.29407 | 115.75080 | 33423 ft | 438 kts | 270° |
| 2026-05-08 04:06 | 22.29318 | 115.71785 | 32642 ft | 442 kts | 270° |
| 2026-05-08 04:07 | 22.29232 | 115.68441 | 31628 ft | 449 kts | 270° |
| 2026-05-08 04:07 | 22.29148 | 115.65053 | 30724 ft | 453 kts | 270° |
| 2026-05-08 04:07 | 22.29059 | 115.61622 | 29570 ft | 461 kts | 269° |
| 2026-05-08 04:07 | 22.28964 | 115.58135 | 28381 ft | 467 kts | 269° |
| 2026-05-08 04:08 | 22.28867 | 115.54614 | 27263 ft | 471 kts | 270° |
| 2026-05-08 04:08 | 22.28768 | 115.51059 | 26065 ft | 477 kts | 270° |
| 2026-05-08 04:08 | 22.28668 | 115.47467 | 24902 ft | 481 kts | 270° |
| 2026-05-08 04:08 | 22.28567 | 115.43867 | 23802 ft | 484 kts | 270° |
| 2026-05-08 04:09 | 22.28461 | 115.40241 | 22966 ft | 479 kts | 270° |
| 2026-05-08 04:09 | 22.28354 | 115.36674 | 21997 ft | 474 kts | 269° |
| 2026-05-08 04:09 | 22.28251 | 115.33154 | 21192 ft | 465 kts | 269° |
| 2026-05-08 04:09 | 22.28152 | 115.29680 | 20367 ft | 459 kts | 269° |
| 2026-05-08 04:10 | 22.28051 | 115.26276 | 19427 ft | 449 kts | 269° |
| 2026-05-08 04:10 | 22.27947 | 115.22958 | 18632 ft | 436 kts | 268° |
| 2026-05-08 04:10 | 22.27845 | 115.19731 | 17720 ft | 426 kts | 268° |
| 2026-05-08 04:10 | 22.27743 | 115.16571 | 16944 ft | 416 kts | 268° |
| 2026-05-08 04:11 | 22.27643 | 115.13469 | 16282 ft | 411 kts | 268° |
| 2026-05-08 04:11 | 22.27545 | 115.10407 | 15630 ft | 406 kts | 268° |
| 2026-05-08 04:11 | 22.27451 | 115.07380 | 15011 ft | 402 kts | 268° |
| 2026-05-08 04:11 | 22.27359 | 115.04376 | 14392 ft | 398 kts | 268° |
| 2026-05-08 04:12 | 22.27266 | 115.01406 | 13785 ft | 395 kts | 268° |
| 2026-05-08 04:12 | 22.27171 | 114.98499 | 13096 ft | 391 kts | 268° |
| 2026-05-08 04:12 | 22.27086 | 114.95898 | 12530 ft | 387 kts | 268° |
| 2026-05-08 04:12 | 22.26993 | 114.93037 | 11886 ft | 382 kts | 268° |
| 2026-05-08 04:13 | 22.26902 | 114.90181 | 11563 ft | 369 kts | 268° |
| 2026-05-08 04:13 | 22.26815 | 114.87474 | 11439 ft | 352 kts | 268° |
| 2026-05-08 04:13 | 22.26729 | 114.84890 | 11314 ft | 337 kts | 268° |
| 2026-05-08 04:13 | 22.26645 | 114.82394 | 11048 ft | 329 kts | 268° |
| 2026-05-08 04:14 | 22.26345 | 114.79968 | 10984 ft | 327 kts | 255° |
| 2026-05-08 04:14 | 22.25501 | 114.77691 | 10975 ft | 328 kts | 241° |
| 2026-05-08 04:14 | 22.24154 | 114.75706 | 10842 ft | 329 kts | 227° |
| 2026-05-08 04:14 | 22.22498 | 114.74001 | 10713 ft | 329 kts | 224° |
| 2026-05-08 04:15 | 22.20839 | 114.72308 | 10564 ft | 328 kts | 224° |
| 2026-05-08 04:15 | 22.19191 | 114.70619 | 10430 ft | 323 kts | 224° |
| 2026-05-08 04:15 | 22.17594 | 114.68980 | 10298 ft | 311 kts | 225° |
| 2026-05-08 04:15 | 22.16056 | 114.67395 | 10194 ft | 301 kts | 225° |
| 2026-05-08 04:16 | 22.14562 | 114.65856 | 9991 ft | 294 kts | 224° |
| 2026-05-08 04:16 | 22.13099 | 114.64351 | 9906 ft | 290 kts | 224° |
| 2026-05-08 04:16 | 22.11636 | 114.62849 | 9784 ft | 290 kts | 224° |
| 2026-05-08 04:16 | 22.10177 | 114.61352 | 9658 ft | 290 kts | 224° |
| 2026-05-08 04:17 | 22.08716 | 114.59856 | 9534 ft | 290 kts | 224° |
| 2026-05-08 04:17 | 22.07255 | 114.58358 | 9420 ft | 289 kts | 224° |
| 2026-05-08 04:17 | 22.05797 | 114.56862 | 9295 ft | 289 kts | 224° |
| 2026-05-08 04:17 | 22.04351 | 114.55360 | 9177 ft | 289 kts | 228° |
| 2026-05-08 04:18 | 22.03225 | 114.53588 | 9058 ft | 287 kts | 246° |
| 2026-05-08 04:18 | 22.02667 | 114.51542 | 8956 ft | 286 kts | 263° |
| 2026-05-08 04:18 | 22.02699 | 114.49406 | 8876 ft | 286 kts | 277° |
| 2026-05-08 04:18 | 22.02946 | 114.47279 | 8791 ft | 286 kts | 277° |
| 2026-05-08 04:19 | 22.03188 | 114.45156 | 8706 ft | 285 kts | 277° |
| 2026-05-08 04:19 | 22.03432 | 114.43035 | 8620 ft | 285 kts | 277° |
| 2026-05-08 04:19 | 22.03675 | 114.40919 | 8537 ft | 284 kts | 277° |
| 2026-05-08 04:19 | 22.03913 | 114.38802 | 8454 ft | 284 kts | 277° |
| 2026-05-08 04:20 | 22.04150 | 114.36690 | 8371 ft | 284 kts | 277° |
| 2026-05-08 04:20 | 22.04387 | 114.34573 | 8281 ft | 284 kts | 277° |
| 2026-05-08 04:20 | 22.04625 | 114.32460 | 8199 ft | 284 kts | 277° |
| 2026-05-08 04:20 | 22.04864 | 114.30352 | 8113 ft | 284 kts | 277° |
| 2026-05-08 04:21 | 22.05099 | 114.28271 | 8033 ft | 283 kts | 277° |
| 2026-05-08 04:21 | 22.05334 | 114.26170 | 7945 ft | 283 kts | 277° |
| 2026-05-08 04:21 | 22.05574 | 114.24027 | 7859 ft | 283 kts | 277° |
| 2026-05-08 04:21 | 22.05812 | 114.21923 | 7777 ft | 283 kts | 277° |
| 2026-05-08 04:22 | 22.06045 | 114.19849 | 7695 ft | 282 kts | 277° |
| 2026-05-08 04:22 | 22.06281 | 114.17751 | 7614 ft | 282 kts | 277° |
| 2026-05-08 04:22 | 22.06515 | 114.15652 | 7526 ft | 282 kts | 277° |
| 2026-05-08 04:22 | 22.06746 | 114.13556 | 7444 ft | 282 kts | 277° |
| 2026-05-08 04:23 | 22.06976 | 114.11460 | 7361 ft | 281 kts | 277° |
| 2026-05-08 04:23 | 22.07207 | 114.09369 | 7276 ft | 281 kts | 277° |
| 2026-05-08 04:23 | 22.07440 | 114.07280 | 7194 ft | 281 kts | 277° |
| 2026-05-08 04:23 | 22.07672 | 114.05190 | 7110 ft | 280 kts | 277° |
| 2026-05-08 04:24 | 22.07903 | 114.03104 | 7027 ft | 280 kts | 277° |
| 2026-05-08 04:24 | 22.08136 | 114.01022 | 6940 ft | 280 kts | 277° |
| 2026-05-08 04:24 | 22.08366 | 113.98938 | 6858 ft | 280 kts | 277° |
| 2026-05-08 04:24 | 22.08596 | 113.96865 | 6777 ft | 279 kts | 277° |
| 2026-05-08 04:25 | 22.08827 | 113.94788 | 6698 ft | 279 kts | 277° |
| 2026-05-08 04:25 | 22.09054 | 113.92717 | 6486 ft | 278 kts | 277° |
| 2026-05-08 04:25 | 22.09281 | 113.90653 | 6165 ft | 277 kts | 277° |
| 2026-05-08 04:25 | 22.09508 | 113.88598 | 5852 ft | 275 kts | 277° |
| 2026-05-08 04:26 | 22.09732 | 113.86553 | 5541 ft | 274 kts | 277° |
| 2026-05-08 04:26 | 22.09954 | 113.84519 | 5231 ft | 272 kts | 276° |
| 2026-05-08 04:26 | 22.10172 | 113.82500 | 4801 ft | 270 kts | 276° |
| 2026-05-08 04:26 | 22.10406 | 113.80498 | 4337 ft | 268 kts | 281° |
| 2026-05-08 04:27 | 22.11049 | 113.78628 | 3885 ft | 266 kts | 301° |
| 2026-05-08 04:27 | 22.12212 | 113.77097 | 3443 ft | 264 kts | 320° |
| 2026-05-08 04:27 | 22.13721 | 113.76083 | 3313 ft | 249 kts | 335° |
| 2026-05-08 04:27 | 22.15246 | 113.75329 | 3192 ft | 234 kts | 335° |
| 2026-05-08 04:28 | 22.16676 | 113.74614 | 3068 ft | 219 kts | 335° |
| 2026-05-08 04:28 | 22.18023 | 113.73938 | 2946 ft | 209 kts | 335° |
| 2026-05-08 04:28 | 22.19313 | 113.73291 | 2837 ft | 199 kts | 335° |
| 2026-05-08 04:28 | 22.20553 | 113.72763 | 2671 ft | 188 kts | 349° |
| 2026-05-08 04:29 | 22.21835 | 113.72800 | 2395 ft | 185 kts | 14° |
| 2026-05-08 04:29 | 22.22978 | 113.73421 | 2105 ft | 185 kts | 32° |
| 2026-05-08 04:29 | 22.24054 | 113.74181 | 2005 ft | 186 kts | 32° |
| 2026-05-08 04:29 | 22.25150 | 113.74948 | 2009 ft | 189 kts | 31° |
| 2026-05-08 04:30 | 22.26216 | 113.75772 | 2001 ft | 189 kts | 42° |
| 2026-05-08 04:30 | 22.26943 | 113.76955 | 2005 ft | 189 kts | 68° |
| 2026-05-08 04:30 | 22.27359 | 113.78238 | 2004 ft | 179 kts | 68° |
| 2026-05-08 04:30 | 22.27762 | 113.79484 | 1900 ft | 175 kts | 70° |
| 2026-05-08 04:31 | 22.28159 | 113.80714 | 1725 ft | 172 kts | 69° |
| 2026-05-08 04:31 | 22.28552 | 113.81929 | 1516 ft | 170 kts | 68° |
| 2026-05-08 04:31 | 22.28804 | 113.82712 | 1360 ft | 164 kts | 67° |
| 2026-05-08 04:31 | 22.29301 | 113.84250 | 1089 ft | 162 kts | 68° |
| 2026-05-08 04:32 | 22.29545 | 113.85005 | 959 ft | 159 kts | 69° |
| 2026-05-08 04:32 | 22.29900 | 113.86104 | 772 ft | 153 kts | 69° |
| 2026-05-08 04:32 | 22.30250 | 113.87186 | 582 ft | 153 kts | 71° |
| 2026-05-08 04:32 | 22.30716 | 113.88625 | 354 ft | 155 kts | 68° |
| 2026-05-08 04:33 | 22.31063 | 113.89708 | 137 ft | 153 kts | 70° |
| 2026-05-08 04:33 | 22.31293 | 113.90431 | 37 ft | 144 kts | 70° |
| 2026-05-08 04:33 | 22.31643 | 113.91509 | 32 ft | 82 kts | 71° |
| 2026-05-08 04:33 | 22.31783 | 113.91938 | 33 ft | 36 kts | 72° |
| 2026-05-08 04:34 | 22.31793 | 113.92082 | 33 ft | 18 kts | 90° |
| 2026-05-08 04:34 | 22.31777 | 113.92201 | 33 ft | 17 kts | 101° |
| 2026-05-08 04:34 | 22.31752 | 113.92337 | 32 ft | 20 kts | 102° |
| 2026-05-08 04:34 | 22.31700 | 113.92432 | 32 ft | 14 kts | 162° |
| 2026-05-08 04:35 | 22.31619 | 113.92465 | 31 ft | 6 kts | 117° |
| 2026-05-08 04:35 | 22.31602 | 113.92512 | 30 ft | 8 kts | 113° |
| 2026-05-08 04:35 | 22.31576 | 113.92570 | 32 ft | 10 kts | 116° |
| 2026-05-08 04:35 | 22.31542 | 113.92643 | 32 ft | 12 kts | 116° |
| 2026-05-08 04:36 | 22.31502 | 113.92733 | 32 ft | 14 kts | 115° |
| 2026-05-08 04:36 | 22.31492 | 113.92810 | 32 ft | 11 kts | 73° |
| 2026-05-08 04:36 | 22.31511 | 113.92880 | 32 ft | 7 kts | 84° |
| 2026-05-08 04:36 | 22.31474 | 113.92914 | 31 ft | 9 kts | 172° |
| 2026-05-08 04:37 | 22.31433 | 113.92928 | 32 ft | 4 kts | 160° |
| 2026-05-08 04:37 | 22.31424 | 113.92932 | 32 ft | 0 kts | 160° |